createdAt,value
2022-10-22T00:04:56.876Z,1108
2022-10-22T00:10:26.920Z,1103
2022-10-22T00:15:56.100Z,1102
2022-10-22T00:21:26.238Z,1102
2022-10-22T00:26:56.429Z,1100
2022-10-22T00:32:25.629Z,1110
2022-10-22T00:37:55.749Z,1107
2022-10-22T00:43:25.914Z,1108
2022-10-22T00:48:56.289Z,1106
2022-10-22T00:54:26.375Z,1110
2022-10-22T00:59:56.656Z,1109
2022-10-22T01:05:26.821Z,1106
2022-10-22T01:10:56.925Z,1106
2022-10-22T01:16:27.225Z,1114
2022-10-22T01:21:57.519Z,1113
2022-10-22T01:27:27.636Z,1125
2022-10-22T01:32:56.808Z,1135
2022-10-22T01:38:26.974Z,1133
2022-10-22T01:43:57.085Z,1128
2022-10-22T01:49:27.380Z,1132
2022-10-22T01:54:57.593Z,1140
2022-10-22T02:00:27.831Z,1134
2022-10-22T02:05:56.998Z,1140
2022-10-22T02:11:27.314Z,1149
2022-10-22T02:16:57.475Z,1146
2022-10-22T02:22:26.696Z,1144
2022-10-22T02:27:56.946Z,1155
2022-10-22T02:33:27.106Z,1166
2022-10-22T02:38:57.376Z,1155
2022-10-22T02:44:27.556Z,1155
2022-10-22T02:49:56.670Z,1162
2022-10-22T02:55:26.815Z,1157
2022-10-22T03:00:57.147Z,1163
2022-10-22T03:11:56.443Z,1174
2022-10-22T03:17:25.670Z,1182
2022-10-22T03:22:55.842Z,1172
2022-10-22T03:28:26.053Z,1176
2022-10-22T03:33:56.408Z,1180
2022-10-22T03:39:26.558Z,1183
2022-10-22T03:44:56.742Z,1188
2022-10-22T03:50:26.011Z,1195
2022-10-22T03:55:56.171Z,1190
2022-10-22T04:01:25.479Z,1189
2022-10-22T04:06:55.615Z,1187
2022-10-22T04:12:25.873Z,1195
2022-10-22T04:17:55.100Z,1195
2022-10-22T04:23:25.316Z,1203
2022-10-22T04:28:55.515Z,1208
2022-10-22T04:34:25.816Z,1214
2022-10-22T04:39:58.184Z,1212
2022-10-22T04:45:26.357Z,1203
2022-10-22T04:50:56.694Z,1214
2022-10-22T04:56:26.951Z,1215
2022-10-22T05:01:56.117Z,1219
2022-10-22T05:07:26.269Z,1217
2022-10-22T05:12:56.471Z,1212
2022-10-22T05:18:26.720Z,1203
2022-10-22T05:23:56.849Z,1205
2022-10-22T05:29:27.273Z,1203
2022-10-22T05:34:57.421Z,1197
2022-10-22T05:40:31.221Z,1198
2022-10-22T05:45:57.941Z,1191
2022-10-22T05:51:28.081Z,1190
2022-10-22T05:56:58.267Z,747
2022-10-22T06:02:27.583Z,628
2022-10-22T06:07:57.827Z,765
2022-10-22T06:13:27.087Z,828
2022-10-22T06:18:57.353Z,840
2022-10-22T06:24:27.545Z,868
2022-10-22T06:29:56.780Z,903
2022-10-22T06:35:27.032Z,938
2022-10-22T06:40:57.216Z,968
2022-10-22T06:46:26.464Z,972
2022-10-22T06:51:56.682Z,889
2022-10-22T06:57:27.001Z,733
2022-10-22T07:02:59.203Z,780
2022-10-22T07:08:27.490Z,618
2022-10-22T07:13:56.741Z,598
2022-10-22T07:19:27.001Z,590
2022-10-22T07:24:57.266Z,591
2022-10-22T07:30:26.539Z,634
2022-10-22T07:35:56.818Z,664
2022-10-22T07:41:27.207Z,691
2022-10-22T07:46:57.405Z,703
2022-10-22T07:52:27.673Z,720
2022-10-22T07:57:57.965Z,738
2022-10-22T08:03:28.186Z,775
2022-10-22T08:08:58.469Z,819
2022-10-22T08:14:28.731Z,802
2022-10-22T08:19:58.906Z,748
2022-10-22T08:25:29.217Z,784
2022-10-22T08:30:59.533Z,785
2022-10-22T08:36:29.705Z,775
2022-10-22T08:41:58.977Z,772
2022-10-22T08:47:29.140Z,801
2022-10-22T08:52:59.219Z,783
2022-10-22T08:58:28.506Z,801
2022-10-22T09:03:58.617Z,794
2022-10-22T09:09:28.845Z,779
2022-10-22T09:14:58.924Z,764
2022-10-22T09:20:29.092Z,762
2022-10-22T09:25:58.213Z,758
2022-10-22T09:31:28.364Z,750
2022-10-22T09:36:58.493Z,755
2022-10-22T09:42:28.745Z,749
2022-10-22T09:48:01.794Z,747
2022-10-22T09:53:29.223Z,748
2022-10-22T09:58:59.349Z,748
2022-10-22T10:04:29.528Z,751
2022-10-22T10:09:58.760Z,748
2022-10-22T10:15:28.892Z,744
2022-10-22T10:20:59.077Z,736
2022-10-22T10:26:28.291Z,737
2022-10-22T10:31:58.437Z,738
2022-10-22T10:37:28.734Z,732
2022-10-22T10:42:58.927Z,732
2022-10-22T10:48:29.057Z,734
2022-10-22T10:53:59.348Z,726
2022-10-22T10:59:29.521Z,719
2022-10-22T11:04:59.641Z,715
2022-10-22T11:10:29.998Z,711
2022-10-22T11:16:00.182Z,707
2022-10-22T11:21:30.437Z,697
2022-10-22T11:27:00.566Z,687
2022-10-22T11:32:30.857Z,684
2022-10-22T11:38:01.129Z,679
2022-10-22T11:43:31.273Z,673
2022-10-22T11:49:01.467Z,678
2022-10-22T11:54:31.736Z,674
2022-10-22T12:00:01.954Z,678
2022-10-22T12:05:31.104Z,680
2022-10-22T12:11:01.244Z,681
2022-10-22T12:16:54.802Z,682
2022-10-22T12:22:00.723Z,677
2022-10-22T12:27:30.838Z,671
2022-10-22T12:33:01.046Z,674
2022-10-22T12:38:31.327Z,676
2022-10-22T12:44:01.431Z,677
2022-10-22T12:49:31.574Z,681
2022-10-22T12:55:00.737Z,683
2022-10-22T13:00:30.978Z,678
2022-10-22T13:06:00.024Z,672
2022-10-22T13:11:30.167Z,673
2022-10-22T13:17:00.241Z,677
2022-10-22T13:22:30.462Z,667
2022-10-22T13:28:00.649Z,671
2022-10-22T13:33:30.765Z,671
2022-10-22T13:39:00.999Z,673
2022-10-22T13:44:31.136Z,664
2022-10-22T13:50:01.430Z,666
2022-10-22T13:55:31.588Z,670
2022-10-22T14:01:01.798Z,674
2022-10-22T14:06:32.060Z,676
2022-10-22T14:12:02.053Z,674
2022-10-22T14:17:32.187Z,670
2022-10-22T14:23:02.538Z,672
2022-10-22T14:28:40.988Z,672
2022-10-22T14:34:02.965Z,626
2022-10-22T14:39:33.054Z,668
2022-10-22T14:45:03.200Z,690
2022-10-22T14:50:33.460Z,710
2022-10-22T14:56:03.584Z,703
2022-10-22T15:01:33.722Z,698
2022-10-22T15:07:04.009Z,705
2022-10-22T15:12:34.112Z,718
2022-10-22T15:18:04.429Z,749
2022-10-22T15:23:34.626Z,786
2022-10-22T15:29:04.753Z,813
2022-10-22T15:34:34.009Z,858
2022-10-22T15:40:04.080Z,864
2022-10-22T15:45:34.325Z,857
2022-10-22T15:51:04.499Z,853
2022-10-22T15:56:34.792Z,839
2022-10-22T16:02:05.068Z,835
2022-10-22T16:07:35.383Z,826
2022-10-22T16:13:05.543Z,817
2022-10-22T16:18:35.827Z,803
2022-10-22T16:24:06.567Z,794
2022-10-22T16:29:36.223Z,792
2022-10-22T16:35:05.392Z,802
2022-10-22T16:40:35.538Z,796
2022-10-22T16:46:05.843Z,816
2022-10-22T16:51:35.968Z,816
2022-10-22T16:57:06.122Z,836
2022-10-22T17:02:36.433Z,831
2022-10-22T17:08:06.675Z,827
2022-10-22T17:13:36.819Z,843
2022-10-22T17:19:05.994Z,844
2022-10-22T17:24:36.126Z,842
2022-10-22T17:30:05.303Z,844
2022-10-22T17:35:35.450Z,848
2022-10-22T17:41:06.985Z,852
2022-10-22T17:46:35.802Z,850
2022-10-22T17:52:05.968Z,848
2022-10-22T17:57:36.078Z,834
2022-10-22T18:03:05.213Z,847
2022-10-22T18:08:35.546Z,862
2022-10-22T18:14:05.474Z,863
2022-10-22T18:19:34.633Z,857
2022-10-22T18:25:04.810Z,725
2022-10-22T18:30:35.055Z,762
2022-10-22T18:36:05.222Z,782
2022-10-22T18:41:35.377Z,811
2022-10-22T18:47:05.613Z,830
2022-10-22T18:52:35.738Z,832
2022-10-22T18:58:05.903Z,841
2022-10-22T19:03:36.260Z,847
2022-10-22T19:09:06.487Z,858
2022-10-22T19:14:35.621Z,860
2022-10-22T19:20:05.734Z,860
2022-10-22T19:25:35.899Z,862
2022-10-22T19:31:06.210Z,872
2022-10-22T19:36:36.355Z,873
2022-10-22T19:42:06.496Z,871
2022-10-22T19:47:36.768Z,871
2022-10-22T19:53:06.896Z,891
2022-10-22T19:58:37.056Z,900
2022-10-22T20:04:07.316Z,902
2022-10-22T20:09:37.404Z,903
2022-10-22T20:15:07.739Z,922
2022-10-22T20:20:37.916Z,926
2022-10-22T20:26:07.998Z,920
2022-10-22T20:31:37.133Z,911
2022-10-22T20:37:07.267Z,901
2022-10-22T20:42:37.523Z,893
2022-10-22T20:48:08.152Z,893
2022-10-22T20:53:37.822Z,891
2022-10-22T20:59:08.142Z,885
2022-10-22T21:04:40.462Z,884
2022-10-22T21:10:08.466Z,888
2022-10-22T21:15:38.734Z,890
2022-10-22T21:21:09.010Z,888
2022-10-22T21:26:39.366Z,890
2022-10-22T21:32:09.515Z,888
2022-10-22T21:37:39.884Z,886
2022-10-22T21:43:10.026Z,877
2022-10-22T21:48:40.137Z,881
2022-10-22T21:54:10.304Z,878
2022-10-22T21:59:39.508Z,882
2022-10-22T22:05:09.742Z,880
2022-10-22T22:10:39.979Z,882
2022-10-22T22:16:10.134Z,873
2022-10-22T22:21:40.212Z,879
2022-10-22T22:27:10.519Z,882
2022-10-22T22:32:40.738Z,879
2022-10-22T22:38:10.862Z,885
2022-10-22T22:43:40.038Z,885
2022-10-22T22:49:10.216Z,881
2022-10-22T22:54:40.320Z,875
2022-10-22T23:00:09.491Z,883
2022-10-22T23:05:39.656Z,880
2022-10-22T23:11:08.765Z,885
2022-10-22T23:16:38.939Z,881
2022-10-22T23:22:09.077Z,880
2022-10-22T23:27:39.503Z,881
2022-10-22T23:33:09.478Z,882
2022-10-22T23:38:39.665Z,877
2022-10-22T23:44:08.845Z,880
2022-10-22T23:49:38.993Z,883
2022-10-22T23:55:09.354Z,890
